ePrivacy and GPDR Cookie Consent by Cookie Consent
EmailTwitter


Observations de surface / Royaume-Uni / EGLL (03772)

Régions: Québec | Canada | États-Unis | Europe | France | UK | Ailleurs
Station
Affichage
Infos & localisation pour EGLL (03772) | Aide pour décoder les METARs

Observations prises le 2022-01-20 à 14H50 UTC à LONDON/HEATHROW, UK (EGLL)

Etat du ciel: couvert.

Température: 6.0 Celsius

Point de rosée: -4.0 Celsius

Humidité relative: 49%

Facteur vent: 3.

Vents: Nord à 15 km/h ou 8 noeuds.

Pression au niveau moyen de la mer: 103.70 kilopascals.

Visibilité horizontale: 6.21 milles terrestres ou 9.94 kilomètres.

Hauteur du plafond: 1250 mètres ( 4100 pieds ).

Observation METAR:

EGLL 201450Z AUTO 01008KT 340V050 9999 OVC041 06/M04 Q1037=